sensor_id;sensor_type;location;lat;lon;timestamp;P1;durP1;ratioP1;P2;durP2;ratioP2
21876;SDS011;11103;43.788;23.710;2022-11-20T00:01:16;51.03;;;29.50;;
21876;SDS011;11103;43.788;23.710;2022-11-20T00:03:44;61.23;;;33.53;;
21876;SDS011;11103;43.788;23.710;2022-11-20T00:06:11;77.53;;;43.73;;
21876;SDS011;11103;43.788;23.710;2022-11-20T00:08:38;76.07;;;41.97;;
21876;SDS011;11103;43.788;23.710;2022-11-20T00:11:05;66.57;;;34.77;;
21876;SDS011;11103;43.788;23.710;2022-11-20T00:13:35;81.93;;;45.80;;
21876;SDS011;11103;43.788;23.710;2022-11-20T00:16:01;101.60;;;53.50;;
21876;SDS011;11103;43.788;23.710;2022-11-20T00:18:28;61.03;;;33.67;;
21876;SDS011;11103;43.788;23.710;2022-11-20T00:20:54;74.67;;;40.17;;
21876;SDS011;11103;43.788;23.710;2022-11-20T00:23:26;70.03;;;38.20;;
21876;SDS011;11103;43.788;23.710;2022-11-20T00:25:52;66.13;;;35.33;;
21876;SDS011;11103;43.788;23.710;2022-11-20T00:28:17;59.67;;;35.17;;
21876;SDS011;11103;43.788;23.710;2022-11-20T00:30:43;67.43;;;36.83;;
21876;SDS011;11103;43.788;23.710;2022-11-20T00:33:10;69.40;;;34.73;;
21876;SDS011;11103;43.788;23.710;2022-11-20T00:35:35;65.00;;;35.20;;
21876;SDS011;11103;43.788;23.710;2022-11-20T00:38:00;71.67;;;37.57;;
21876;SDS011;11103;43.788;23.710;2022-11-20T00:40:28;65.57;;;35.10;;
21876;SDS011;11103;43.788;23.710;2022-11-20T00:42:53;72.27;;;34.37;;
21876;SDS011;11103;43.788;23.710;2022-11-20T00:45:19;64.10;;;34.33;;
21876;SDS011;11103;43.788;23.710;2022-11-20T00:47:44;66.13;;;35.67;;
21876;SDS011;11103;43.788;23.710;2022-11-20T00:50:09;68.20;;;35.47;;
21876;SDS011;11103;43.788;23.710;2022-11-20T00:52:35;67.90;;;37.30;;
21876;SDS011;11103;43.788;23.710;2022-11-20T00:55:00;79.30;;;38.57;;
21876;SDS011;11103;43.788;23.710;2022-11-20T00:57:26;65.87;;;36.43;;
21876;SDS011;11103;43.788;23.710;2022-11-20T00:59:51;74.93;;;36.87;;
21876;SDS011;11103;43.788;23.710;2022-11-20T01:02:17;74.07;;;35.63;;
21876;SDS011;11103;43.788;23.710;2022-11-20T01:04:42;67.83;;;35.50;;
21876;SDS011;11103;43.788;23.710;2022-11-20T01:07:07;65.37;;;35.03;;
21876;SDS011;11103;43.788;23.710;2022-11-20T01:09:33;62.50;;;34.37;;
21876;SDS011;11103;43.788;23.710;2022-11-20T01:11:58;66.47;;;34.27;;
21876;SDS011;11103;43.788;23.710;2022-11-20T01:14:25;68.23;;;34.80;;
21876;SDS011;11103;43.788;23.710;2022-11-20T01:16:51;66.10;;;33.73;;
21876;SDS011;11103;43.788;23.710;2022-11-20T01:19:18;61.00;;;31.70;;
21876;SDS011;11103;43.788;23.710;2022-11-20T01:21:47;63.23;;;32.70;;
21876;SDS011;11103;43.788;23.710;2022-11-20T01:24:14;58.33;;;30.53;;
21876;SDS011;11103;43.788;23.710;2022-11-20T01:26:43;62.63;;;30.53;;
21876;SDS011;11103;43.788;23.710;2022-11-20T01:29:14;61.30;;;31.33;;
21876;SDS011;11103;43.788;23.710;2022-11-20T01:31:42;57.00;;;31.33;;
21876;SDS011;11103;43.788;23.710;2022-11-20T01:34:12;61.57;;;31.47;;
21876;SDS011;11103;43.788;23.710;2022-11-20T01:36:39;57.67;;;30.07;;
21876;SDS011;11103;43.788;23.710;2022-11-20T01:39:13;53.33;;;29.93;;
21876;SDS011;11103;43.788;23.710;2022-11-20T01:41:40;55.17;;;29.10;;
21876;SDS011;11103;43.788;23.710;2022-11-20T01:47:33;56.70;;;29.67;;
21876;SDS011;11103;43.788;23.710;2022-11-20T01:52:50;46.77;;;27.50;;
21876;SDS011;11103;43.788;23.710;2022-11-20T01:55:22;51.33;;;27.87;;
21876;SDS011;11103;43.788;23.710;2022-11-20T01:57:50;52.17;;;29.80;;
21876;SDS011;11103;43.788;23.710;2022-11-20T02:00:18;54.17;;;29.90;;
21876;SDS011;11103;43.788;23.710;2022-11-20T02:02:46;59.57;;;29.90;;
21876;SDS011;11103;43.788;23.710;2022-11-20T02:06:00;57.13;;;29.80;;
21876;SDS011;11103;43.788;23.710;2022-11-20T02:08:11;65.83;;;31.40;;
21876;SDS011;11103;43.788;23.710;2022-11-20T02:10:37;58.30;;;30.83;;
21876;SDS011;11103;43.788;23.710;2022-11-20T02:13:03;58.83;;;31.17;;
21876;SDS011;11103;43.788;23.710;2022-11-20T02:18:18;71.83;;;34.43;;
21876;SDS011;11103;43.788;23.710;2022-11-20T02:20:45;60.20;;;32.77;;
21876;SDS011;11103;43.788;23.710;2022-11-20T02:26:03;70.97;;;35.30;;
21876;SDS011;11103;43.788;23.710;2022-11-20T02:28:32;76.53;;;35.77;;
21876;SDS011;11103;43.788;23.710;2022-11-20T02:30:58;70.23;;;35.17;;
21876;SDS011;11103;43.788;23.710;2022-11-20T02:33:23;75.83;;;36.30;;
21876;SDS011;11103;43.788;23.710;2022-11-20T02:35:49;78.37;;;35.80;;
21876;SDS011;11103;43.788;23.710;2022-11-20T02:38:14;78.00;;;36.23;;
21876;SDS011;11103;43.788;23.710;2022-11-20T02:40:40;73.60;;;35.47;;
21876;SDS011;11103;43.788;23.710;2022-11-20T02:43:06;75.57;;;35.93;;
21876;SDS011;11103;43.788;23.710;2022-11-20T02:45:32;69.43;;;35.60;;
21876;SDS011;11103;43.788;23.710;2022-11-20T02:47:57;82.67;;;37.93;;
21876;SDS011;11103;43.788;23.710;2022-11-20T02:50:23;70.93;;;36.60;;
21876;SDS011;11103;43.788;23.710;2022-11-20T02:52:48;70.27;;;35.17;;
21876;SDS011;11103;43.788;23.710;2022-11-20T02:55:13;80.13;;;36.67;;
21876;SDS011;11103;43.788;23.710;2022-11-20T02:57:39;86.53;;;38.47;;
21876;SDS011;11103;43.788;23.710;2022-11-20T03:00:05;73.80;;;36.30;;
21876;SDS011;11103;43.788;23.710;2022-11-20T03:02:31;85.10;;;39.00;;
21876;SDS011;11103;43.788;23.710;2022-11-20T03:04:57;77.70;;;37.17;;
21876;SDS011;11103;43.788;23.710;2022-11-20T03:07:23;84.57;;;37.13;;
21876;SDS011;11103;43.788;23.710;2022-11-20T03:09:49;84.73;;;37.93;;
21876;SDS011;11103;43.788;23.710;2022-11-20T03:12:14;85.47;;;37.83;;
21876;SDS011;11103;43.788;23.710;2022-11-20T03:14:39;81.87;;;38.03;;
21876;SDS011;11103;43.788;23.710;2022-11-20T03:17:05;82.00;;;37.13;;
21876;SDS011;11103;43.788;23.710;2022-11-20T03:19:30;88.83;;;36.90;;
21876;SDS011;11103;43.788;23.710;2022-11-20T03:21:56;81.17;;;37.07;;
21876;SDS011;11103;43.788;23.710;2022-11-20T03:24:21;81.70;;;36.47;;
21876;SDS011;11103;43.788;23.710;2022-11-20T03:26:46;81.67;;;36.97;;
21876;SDS011;11103;43.788;23.710;2022-11-20T03:29:12;84.47;;;37.17;;
21876;SDS011;11103;43.788;23.710;2022-11-20T03:31:38;82.23;;;35.87;;
21876;SDS011;11103;43.788;23.710;2022-11-20T03:34:05;79.43;;;36.23;;
21876;SDS011;11103;43.788;23.710;2022-11-20T03:36:31;87.97;;;38.50;;
21876;SDS011;11103;43.788;23.710;2022-11-20T03:38:57;84.47;;;36.60;;
21876;SDS011;11103;43.788;23.710;2022-11-20T03:41:24;79.03;;;35.73;;
21876;SDS011;11103;43.788;23.710;2022-11-20T03:43:58;89.20;;;36.83;;
21876;SDS011;11103;43.788;23.710;2022-11-20T03:46:26;85.37;;;35.57;;
21876;SDS011;11103;43.788;23.710;2022-11-20T03:48:52;81.30;;;35.37;;
21876;SDS011;11103;43.788;23.710;2022-11-20T03:51:22;79.93;;;36.23;;
21876;SDS011;11103;43.788;23.710;2022-11-20T03:53:50;82.53;;;37.43;;
21876;SDS011;11103;43.788;23.710;2022-11-20T03:56:17;89.43;;;37.07;;
21876;SDS011;11103;43.788;23.710;2022-11-20T03:58:46;81.50;;;36.20;;
21876;SDS011;11103;43.788;23.710;2022-11-20T04:01:12;84.97;;;36.33;;
21876;SDS011;11103;43.788;23.710;2022-11-20T04:03:40;87.37;;;37.93;;
21876;SDS011;11103;43.788;23.710;2022-11-20T04:06:11;98.73;;;37.70;;
21876;SDS011;11103;43.788;23.710;2022-11-20T04:08:38;85.27;;;37.30;;
21876;SDS011;11103;43.788;23.710;2022-11-20T04:13:36;84.83;;;36.27;;
21876;SDS011;11103;43.788;23.710;2022-11-20T04:16:02;84.57;;;38.23;;
21876;SDS011;11103;43.788;23.710;2022-11-20T04:18:28;80.30;;;37.40;;
21876;SDS011;11103;43.788;23.710;2022-11-20T04:20:55;90.57;;;36.67;;
21876;SDS011;11103;43.788;23.710;2022-11-20T04:23:22;94.47;;;38.60;;
21876;SDS011;11103;43.788;23.710;2022-11-20T04:25:47;87.60;;;35.83;;
21876;SDS011;11103;43.788;23.710;2022-11-20T04:28:13;74.07;;;34.53;;
21876;SDS011;11103;43.788;23.710;2022-11-20T04:30:38;85.40;;;37.00;;
21876;SDS011;11103;43.788;23.710;2022-11-20T04:33:03;84.50;;;35.70;;
21876;SDS011;11103;43.788;23.710;2022-11-20T04:35:29;76.87;;;34.40;;
21876;SDS011;11103;43.788;23.710;2022-11-20T04:37:54;73.03;;;33.97;;
21876;SDS011;11103;43.788;23.710;2022-11-20T04:40:20;82.90;;;34.43;;
21876;SDS011;11103;43.788;23.710;2022-11-20T04:42:45;82.13;;;33.87;;
21876;SDS011;11103;43.788;23.710;2022-11-20T04:45:10;88.47;;;34.53;;
21876;SDS011;11103;43.788;23.710;2022-11-20T04:47:36;85.87;;;33.13;;
21876;SDS011;11103;43.788;23.710;2022-11-20T04:50:01;76.33;;;35.30;;
21876;SDS011;11103;43.788;23.710;2022-11-20T04:52:27;78.43;;;35.27;;
21876;SDS011;11103;43.788;23.710;2022-11-20T04:54:52;82.87;;;34.80;;
21876;SDS011;11103;43.788;23.710;2022-11-20T04:57:18;86.00;;;35.40;;
21876;SDS011;11103;43.788;23.710;2022-11-20T04:59:44;73.73;;;34.17;;
21876;SDS011;11103;43.788;23.710;2022-11-20T05:02:10;82.67;;;35.83;;
21876;SDS011;11103;43.788;23.710;2022-11-20T05:04:36;85.10;;;35.97;;
21876;SDS011;11103;43.788;23.710;2022-11-20T05:07:01;81.03;;;34.20;;
21876;SDS011;11103;43.788;23.710;2022-11-20T05:09:27;76.30;;;32.37;;
21876;SDS011;11103;43.788;23.710;2022-11-20T05:11:53;69.27;;;32.57;;
21876;SDS011;11103;43.788;23.710;2022-11-20T05:14:18;81.97;;;33.33;;
21876;SDS011;11103;43.788;23.710;2022-11-20T05:16:43;71.90;;;34.00;;
21876;SDS011;11103;43.788;23.710;2022-11-20T05:19:09;64.77;;;32.73;;
21876;SDS011;11103;43.788;23.710;2022-11-20T05:21:34;72.40;;;32.60;;
21876;SDS011;11103;43.788;23.710;2022-11-20T05:24:00;64.33;;;32.23;;
21876;SDS011;11103;43.788;23.710;2022-11-20T05:26:25;67.07;;;32.23;;
21876;SDS011;11103;43.788;23.710;2022-11-20T05:28:51;77.17;;;33.67;;
21876;SDS011;11103;43.788;23.710;2022-11-20T05:31:20;72.03;;;31.63;;
21876;SDS011;11103;43.788;23.710;2022-11-20T05:33:48;75.67;;;32.13;;
21876;SDS011;11103;43.788;23.710;2022-11-20T05:36:14;75.57;;;34.03;;
21876;SDS011;11103;43.788;23.710;2022-11-20T05:38:40;79.23;;;33.93;;
21876;SDS011;11103;43.788;23.710;2022-11-20T05:41:08;76.60;;;32.80;;
21876;SDS011;11103;43.788;23.710;2022-11-20T05:43:36;77.27;;;33.67;;
21876;SDS011;11103;43.788;23.710;2022-11-20T05:46:04;76.40;;;34.43;;
21876;SDS011;11103;43.788;23.710;2022-11-20T05:48:30;81.43;;;33.90;;
21876;SDS011;11103;43.788;23.710;2022-11-20T05:50:57;74.23;;;32.63;;
21876;SDS011;11103;43.788;23.710;2022-11-20T05:53:23;89.53;;;37.30;;
21876;SDS011;11103;43.788;23.710;2022-11-20T05:55:59;102.33;;;49.10;;
21876;SDS011;11103;43.788;23.710;2022-11-20T05:58:25;116.07;;;50.20;;
21876;SDS011;11103;43.788;23.710;2022-11-20T06:00:51;241.40;;;110.50;;
21876;SDS011;11103;43.788;23.710;2022-11-20T06:03:17;114.13;;;49.97;;
21876;SDS011;11103;43.788;23.710;2022-11-20T06:05:42;85.93;;;34.90;;
21876;SDS011;11103;43.788;23.710;2022-11-20T06:08:08;94.40;;;42.53;;
21876;SDS011;11103;43.788;23.710;2022-11-20T06:10:33;103.03;;;48.37;;
21876;SDS011;11103;43.788;23.710;2022-11-20T06:12:59;75.93;;;35.60;;
21876;SDS011;11103;43.788;23.710;2022-11-20T06:15:24;79.23;;;34.43;;
21876;SDS011;11103;43.788;23.710;2022-11-20T06:17:53;82.40;;;35.23;;
21876;SDS011;11103;43.788;23.710;2022-11-20T06:20:20;82.00;;;36.63;;
21876;SDS011;11103;43.788;23.710;2022-11-20T06:22:46;79.10;;;34.53;;
21876;SDS011;11103;43.788;23.710;2022-11-20T06:25:11;81.20;;;36.37;;
21876;SDS011;11103;43.788;23.710;2022-11-20T06:27:36;77.63;;;35.57;;
21876;SDS011;11103;43.788;23.710;2022-11-20T06:30:02;73.97;;;35.17;;
21876;SDS011;11103;43.788;23.710;2022-11-20T06:32:29;86.27;;;37.80;;
21876;SDS011;11103;43.788;23.710;2022-11-20T06:34:54;86.57;;;36.70;;
21876;SDS011;11103;43.788;23.710;2022-11-20T06:37:19;81.53;;;36.17;;
21876;SDS011;11103;43.788;23.710;2022-11-20T06:39:45;85.13;;;36.70;;
21876;SDS011;11103;43.788;23.710;2022-11-20T06:42:10;77.47;;;34.83;;
21876;SDS011;11103;43.788;23.710;2022-11-20T06:44:36;78.27;;;35.23;;
21876;SDS011;11103;43.788;23.710;2022-11-20T06:47:01;89.20;;;39.20;;
21876;SDS011;11103;43.788;23.710;2022-11-20T06:49:26;92.40;;;39.00;;
21876;SDS011;11103;43.788;23.710;2022-11-20T06:51:52;141.53;;;58.73;;
21876;SDS011;11103;43.788;23.710;2022-11-20T06:54:17;95.20;;;45.53;;
21876;SDS011;11103;43.788;23.710;2022-11-20T06:56:46;88.00;;;40.73;;
21876;SDS011;11103;43.788;23.710;2022-11-20T06:59:12;88.53;;;38.00;;
21876;SDS011;11103;43.788;23.710;2022-11-20T07:01:38;74.27;;;35.20;;
21876;SDS011;11103;43.788;23.710;2022-11-20T07:04:03;74.30;;;32.37;;
21876;SDS011;11103;43.788;23.710;2022-11-20T07:06:29;67.23;;;34.73;;
21876;SDS011;11103;43.788;23.710;2022-11-20T07:08:54;78.03;;;35.23;;
21876;SDS011;11103;43.788;23.710;2022-11-20T07:11:20;70.53;;;35.43;;
21876;SDS011;11103;43.788;23.710;2022-11-20T07:13:45;70.33;;;33.37;;
21876;SDS011;11103;43.788;23.710;2022-11-20T07:16:11;88.77;;;35.33;;
21876;SDS011;11103;43.788;23.710;2022-11-20T07:18:36;67.47;;;33.53;;
21876;SDS011;11103;43.788;23.710;2022-11-20T07:21:05;63.60;;;31.93;;
21876;SDS011;11103;43.788;23.710;2022-11-20T07:23:33;72.30;;;34.83;;
21876;SDS011;11103;43.788;23.710;2022-11-20T07:26:06;66.23;;;32.87;;
21876;SDS011;11103;43.788;23.710;2022-11-20T07:28:32;59.27;;;31.23;;
21876;SDS011;11103;43.788;23.710;2022-11-20T07:30:58;60.33;;;30.70;;
21876;SDS011;11103;43.788;23.710;2022-11-20T07:33:24;55.50;;;28.93;;
21876;SDS011;11103;43.788;23.710;2022-11-20T07:35:49;61.17;;;30.40;;
21876;SDS011;11103;43.788;23.710;2022-11-20T07:38:17;62.87;;;33.80;;
21876;SDS011;11103;43.788;23.710;2022-11-20T07:40:42;65.70;;;33.37;;
21876;SDS011;11103;43.788;23.710;2022-11-20T07:43:08;65.43;;;34.97;;
21876;SDS011;11103;43.788;23.710;2022-11-20T07:45:33;58.33;;;31.20;;
21876;SDS011;11103;43.788;23.710;2022-11-20T07:47:59;69.57;;;32.63;;
21876;SDS011;11103;43.788;23.710;2022-11-20T07:50:24;67.77;;;35.07;;
21876;SDS011;11103;43.788;23.710;2022-11-20T07:52:49;69.47;;;33.23;;
21876;SDS011;11103;43.788;23.710;2022-11-20T07:55:15;62.53;;;31.13;;
21876;SDS011;11103;43.788;23.710;2022-11-20T07:57:41;58.83;;;30.60;;
21876;SDS011;11103;43.788;23.710;2022-11-20T08:00:07;179.47;;;54.37;;
21876;SDS011;11103;43.788;23.710;2022-11-20T08:02:40;69.83;;;31.60;;
21876;SDS011;11103;43.788;23.710;2022-11-20T08:05:06;57.30;;;29.90;;
21876;SDS011;11103;43.788;23.710;2022-11-20T08:07:39;63.67;;;31.13;;
21876;SDS011;11103;43.788;23.710;2022-11-20T08:10:06;62.20;;;32.53;;
21876;SDS011;11103;43.788;23.710;2022-11-20T08:12:33;64.33;;;32.23;;
21876;SDS011;11103;43.788;23.710;2022-11-20T08:15:17;57.33;;;30.47;;
21876;SDS011;11103;43.788;23.710;2022-11-20T08:17:43;56.23;;;30.10;;
21876;SDS011;11103;43.788;23.710;2022-11-20T08:20:08;61.30;;;33.13;;
21876;SDS011;11103;43.788;23.710;2022-11-20T08:22:34;66.93;;;33.40;;
21876;SDS011;11103;43.788;23.710;2022-11-20T08:25:00;61.90;;;33.10;;
21876;SDS011;11103;43.788;23.710;2022-11-20T08:27:25;62.10;;;32.57;;
21876;SDS011;11103;43.788;23.710;2022-11-20T08:29:51;59.03;;;32.23;;
21876;SDS011;11103;43.788;23.710;2022-11-20T08:32:16;59.83;;;31.90;;
21876;SDS011;11103;43.788;23.710;2022-11-20T08:34:42;66.10;;;34.20;;
21876;SDS011;11103;43.788;23.710;2022-11-20T08:37:08;62.53;;;31.10;;
21876;SDS011;11103;43.788;23.710;2022-11-20T08:39:33;60.93;;;32.37;;
21876;SDS011;11103;43.788;23.710;2022-11-20T08:41:58;59.37;;;32.17;;
21876;SDS011;11103;43.788;23.710;2022-11-20T08:44:24;112.47;;;60.37;;
21876;SDS011;11103;43.788;23.710;2022-11-20T08:46:49;58.33;;;30.50;;
21876;SDS011;11103;43.788;23.710;2022-11-20T08:49:15;57.77;;;30.40;;
21876;SDS011;11103;43.788;23.710;2022-11-20T08:51:41;93.77;;;42.53;;
21876;SDS011;11103;43.788;23.710;2022-11-20T08:54:07;124.57;;;48.57;;
21876;SDS011;11103;43.788;23.710;2022-11-20T08:56:32;77.60;;;37.27;;
21876;SDS011;11103;43.788;23.710;2022-11-20T08:58:58;68.70;;;35.40;;
21876;SDS011;11103;43.788;23.710;2022-11-20T09:01:27;61.37;;;32.13;;
21876;SDS011;11103;43.788;23.710;2022-11-20T09:03:56;72.27;;;36.10;;
21876;SDS011;11103;43.788;23.710;2022-11-20T09:06:22;99.30;;;44.60;;
21876;SDS011;11103;43.788;23.710;2022-11-20T09:08:51;117.60;;;49.70;;
21876;SDS011;11103;43.788;23.710;2022-11-20T09:11:18;73.07;;;35.73;;
21876;SDS011;11103;43.788;23.710;2022-11-20T09:13:43;88.93;;;42.03;;
21876;SDS011;11103;43.788;23.710;2022-11-20T09:16:09;61.40;;;32.23;;
21876;SDS011;11103;43.788;23.710;2022-11-20T09:18:35;60.13;;;31.50;;
21876;SDS011;11103;43.788;23.710;2022-11-20T09:21:03;52.57;;;30.30;;
21876;SDS011;11103;43.788;23.710;2022-11-20T09:23:34;76.17;;;36.37;;
21876;SDS011;11103;43.788;23.710;2022-11-20T09:26:04;58.90;;;31.50;;
21876;SDS011;11103;43.788;23.710;2022-11-20T09:28:31;64.43;;;34.47;;
21876;SDS011;11103;43.788;23.710;2022-11-20T09:30:57;73.30;;;38.77;;
21876;SDS011;11103;43.788;23.710;2022-11-20T09:33:24;77.33;;;40.33;;
21876;SDS011;11103;43.788;23.710;2022-11-20T09:35:49;70.90;;;36.97;;
21876;SDS011;11103;43.788;23.710;2022-11-20T09:38:15;71.10;;;36.97;;
21876;SDS011;11103;43.788;23.710;2022-11-20T09:40:43;56.93;;;31.93;;
21876;SDS011;11103;43.788;23.710;2022-11-20T09:45:54;95.60;;;50.57;;
21876;SDS011;11103;43.788;23.710;2022-11-20T09:54:13;86.10;;;39.47;;
21876;SDS011;11103;43.788;23.710;2022-11-20T09:56:44;60.20;;;31.03;;
21876;SDS011;11103;43.788;23.710;2022-11-20T10:02:14;54.53;;;30.40;;
21876;SDS011;11103;43.788;23.710;2022-11-20T10:04:55;78.47;;;41.30;;
21876;SDS011;11103;43.788;23.710;2022-11-20T10:07:39;80.83;;;44.60;;
21876;SDS011;11103;43.788;23.710;2022-11-20T10:10:27;67.27;;;35.90;;
21876;SDS011;11103;43.788;23.710;2022-11-20T10:13:09;54.47;;;30.90;;
21876;SDS011;11103;43.788;23.710;2022-11-20T10:30:13;65.70;;;35.67;;
21876;SDS011;11103;43.788;23.710;2022-11-20T10:32:42;48.57;;;27.47;;
21876;SDS011;11103;43.788;23.710;2022-11-20T10:37:41;59.07;;;33.50;;
21876;SDS011;11103;43.788;23.710;2022-11-20T10:42:57;49.70;;;30.40;;
21876;SDS011;11103;43.788;23.710;2022-11-20T10:50:40;43.47;;;25.00;;
21876;SDS011;11103;43.788;23.710;2022-11-20T10:56:01;36.27;;;22.03;;
21876;SDS011;11103;43.788;23.710;2022-11-20T11:01:18;34.97;;;21.13;;
21876;SDS011;11103;43.788;23.710;2022-11-20T11:03:55;41.73;;;24.40;;
21876;SDS011;11103;43.788;23.710;2022-11-20T11:06:35;34.57;;;21.17;;
21876;SDS011;11103;43.788;23.710;2022-11-20T11:09:15;35.07;;;22.93;;
21876;SDS011;11103;43.788;23.710;2022-11-20T11:11:45;36.13;;;23.60;;
21876;SDS011;11103;43.788;23.710;2022-11-20T11:14:12;35.10;;;21.80;;
21876;SDS011;11103;43.788;23.710;2022-11-20T11:19:44;40.33;;;24.63;;
21876;SDS011;11103;43.788;23.710;2022-11-20T11:22:16;35.33;;;22.13;;
21876;SDS011;11103;43.788;23.710;2022-11-20T11:24:51;33.93;;;21.30;;
21876;SDS011;11103;43.788;23.710;2022-11-20T11:27:17;32.43;;;20.97;;
21876;SDS011;11103;43.788;23.710;2022-11-20T11:29:42;36.90;;;22.67;;
21876;SDS011;11103;43.788;23.710;2022-11-20T11:32:11;31.67;;;20.43;;
21876;SDS011;11103;43.788;23.710;2022-11-20T11:34:38;29.77;;;20.53;;
21876;SDS011;11103;43.788;23.710;2022-11-20T11:37:04;36.23;;;22.20;;
21876;SDS011;11103;43.788;23.710;2022-11-20T11:39:36;27.97;;;18.80;;
21876;SDS011;11103;43.788;23.710;2022-11-20T11:42:07;30.77;;;18.90;;
21876;SDS011;11103;43.788;23.710;2022-11-20T11:44:43;28.40;;;19.77;;
21876;SDS011;11103;43.788;23.710;2022-11-20T11:47:50;32.33;;;20.63;;
21876;SDS011;11103;43.788;23.710;2022-11-20T11:50:26;31.33;;;20.77;;
21876;SDS011;11103;43.788;23.710;2022-11-20T11:52:59;36.67;;;22.70;;
21876;SDS011;11103;43.788;23.710;2022-11-20T11:56:08;32.23;;;21.40;;
21876;SDS011;11103;43.788;23.710;2022-11-20T11:58:46;32.77;;;20.13;;
21876;SDS011;11103;43.788;23.710;2022-11-20T12:06:47;31.17;;;20.23;;
21876;SDS011;11103;43.788;23.710;2022-11-20T12:09:18;67.20;;;38.93;;
21876;SDS011;11103;43.788;23.710;2022-11-20T12:11:54;34.87;;;22.40;;
21876;SDS011;11103;43.788;23.710;2022-11-20T12:16:57;38.63;;;22.13;;
21876;SDS011;11103;43.788;23.710;2022-11-20T12:19:23;46.70;;;29.90;;
21876;SDS011;11103;43.788;23.710;2022-11-20T12:30:12;34.10;;;24.07;;
21876;SDS011;11103;43.788;23.710;2022-11-20T12:35:52;39.57;;;23.73;;
21876;SDS011;11103;43.788;23.710;2022-11-20T12:59:28;54.87;;;27.87;;
21876;SDS011;11103;43.788;23.710;2022-11-20T13:02:29;58.40;;;33.43;;
21876;SDS011;11103;43.788;23.710;2022-11-20T13:08:15;69.13;;;34.50;;
21876;SDS011;11103;43.788;23.710;2022-11-20T13:19:15;44.33;;;27.70;;
21876;SDS011;11103;43.788;23.710;2022-11-20T13:21:43;49.87;;;28.03;;
21876;SDS011;11103;43.788;23.710;2022-11-20T13:26:44;51.00;;;30.97;;
21876;SDS011;11103;43.788;23.710;2022-11-20T13:29:11;56.83;;;30.47;;
21876;SDS011;11103;43.788;23.710;2022-11-20T13:31:46;36.00;;;20.67;;
21876;SDS011;11103;43.788;23.710;2022-11-20T13:34:25;41.07;;;24.13;;
21876;SDS011;11103;43.788;23.710;2022-11-20T13:36:53;38.97;;;23.20;;
21876;SDS011;11103;43.788;23.710;2022-11-20T13:39:24;95.77;;;43.70;;
21876;SDS011;11103;43.788;23.710;2022-11-20T13:41:55;45.20;;;26.97;;
21876;SDS011;11103;43.788;23.710;2022-11-20T13:44:48;30.93;;;20.07;;
21876;SDS011;11103;43.788;23.710;2022-11-20T13:47:24;50.93;;;27.03;;
21876;SDS011;11103;43.788;23.710;2022-11-20T13:49:51;33.43;;;20.97;;
21876;SDS011;11103;43.788;23.710;2022-11-20T13:58:01;54.83;;;33.47;;
21876;SDS011;11103;43.788;23.710;2022-11-20T14:00:32;47.60;;;31.50;;
21876;SDS011;11103;43.788;23.710;2022-11-20T14:03:02;35.83;;;22.60;;
21876;SDS011;11103;43.788;23.710;2022-11-20T14:05:39;31.47;;;19.90;;
21876;SDS011;11103;43.788;23.710;2022-11-20T14:08:14;26.37;;;17.90;;
21876;SDS011;11103;43.788;23.710;2022-11-20T14:10:48;29.40;;;19.17;;
21876;SDS011;11103;43.788;23.710;2022-11-20T14:13:17;30.50;;;20.10;;
21876;SDS011;11103;43.788;23.710;2022-11-20T14:15:44;32.87;;;21.63;;
21876;SDS011;11103;43.788;23.710;2022-11-20T14:18:12;39.93;;;22.47;;
21876;SDS011;11103;43.788;23.710;2022-11-20T14:20:44;40.90;;;22.90;;
21876;SDS011;11103;43.788;23.710;2022-11-20T14:23:10;43.30;;;24.10;;
21876;SDS011;11103;43.788;23.710;2022-11-20T14:25:36;37.77;;;23.17;;
21876;SDS011;11103;43.788;23.710;2022-11-20T14:28:10;34.63;;;21.83;;
21876;SDS011;11103;43.788;23.710;2022-11-20T14:30:45;40.20;;;24.67;;
21876;SDS011;11103;43.788;23.710;2022-11-20T14:33:13;42.50;;;26.10;;
21876;SDS011;11103;43.788;23.710;2022-11-20T14:35:49;44.87;;;27.47;;
21876;SDS011;11103;43.788;23.710;2022-11-20T14:38:18;48.13;;;27.30;;
21876;SDS011;11103;43.788;23.710;2022-11-20T14:45:42;33.53;;;22.50;;
21876;SDS011;11103;43.788;23.710;2022-11-20T14:48:08;30.23;;;18.43;;
21876;SDS011;11103;43.788;23.710;2022-11-20T14:50:35;38.93;;;24.00;;
21876;SDS011;11103;43.788;23.710;2022-11-20T14:53:03;74.83;;;35.47;;
21876;SDS011;11103;43.788;23.710;2022-11-20T14:55:34;25.73;;;17.50;;
21876;SDS011;11103;43.788;23.710;2022-11-20T14:58:03;27.87;;;19.07;;
21876;SDS011;11103;43.788;23.710;2022-11-20T15:00:31;21.87;;;14.93;;
21876;SDS011;11103;43.788;23.710;2022-11-20T15:02:58;24.07;;;15.90;;
21876;SDS011;11103;43.788;23.710;2022-11-20T15:05:25;24.47;;;15.43;;
21876;SDS011;11103;43.788;23.710;2022-11-20T15:08:09;22.13;;;14.10;;
21876;SDS011;11103;43.788;23.710;2022-11-20T15:10:35;22.80;;;13.77;;
21876;SDS011;11103;43.788;23.710;2022-11-20T15:13:10;28.93;;;17.20;;
21876;SDS011;11103;43.788;23.710;2022-11-20T15:15:48;28.47;;;17.33;;
21876;SDS011;11103;43.788;23.710;2022-11-20T15:18:16;29.37;;;17.70;;
21876;SDS011;11103;43.788;23.710;2022-11-20T15:23:38;29.60;;;18.30;;
21876;SDS011;11103;43.788;23.710;2022-11-20T15:26:10;23.97;;;15.60;;
21876;SDS011;11103;43.788;23.710;2022-11-20T15:28:41;26.37;;;16.70;;
21876;SDS011;11103;43.788;23.710;2022-11-20T15:31:11;36.17;;;19.03;;
21876;SDS011;11103;43.788;23.710;2022-11-20T15:33:38;40.10;;;22.90;;
21876;SDS011;11103;43.788;23.710;2022-11-20T15:36:03;26.60;;;15.87;;
21876;SDS011;11103;43.788;23.710;2022-11-20T15:38:29;24.90;;;16.37;;
21876;SDS011;11103;43.788;23.710;2022-11-20T15:40:54;25.77;;;16.40;;
21876;SDS011;11103;43.788;23.710;2022-11-20T15:43:20;40.63;;;26.00;;
21876;SDS011;11103;43.788;23.710;2022-11-20T15:45:55;42.90;;;28.43;;
21876;SDS011;11103;43.788;23.710;2022-11-20T15:48:25;25.90;;;16.53;;
21876;SDS011;11103;43.788;23.710;2022-11-20T15:53:30;23.03;;;16.10;;
21876;SDS011;11103;43.788;23.710;2022-11-20T15:55:55;28.57;;;17.47;;
21876;SDS011;11103;43.788;23.710;2022-11-20T15:58:21;27.70;;;18.67;;
21876;SDS011;11103;43.788;23.710;2022-11-20T16:00:50;27.30;;;17.13;;
21876;SDS011;11103;43.788;23.710;2022-11-20T16:03:16;35.23;;;20.43;;
21876;SDS011;11103;43.788;23.710;2022-11-20T16:05:42;35.37;;;21.70;;
21876;SDS011;11103;43.788;23.710;2022-11-20T16:08:08;34.27;;;22.13;;
21876;SDS011;11103;43.788;23.710;2022-11-20T16:10:34;29.47;;;18.87;;
21876;SDS011;11103;43.788;23.710;2022-11-20T16:13:00;29.67;;;19.20;;
21876;SDS011;11103;43.788;23.710;2022-11-20T16:15:51;34.33;;;21.37;;
21876;SDS011;11103;43.788;23.710;2022-11-20T16:18:21;37.30;;;23.20;;
21876;SDS011;11103;43.788;23.710;2022-11-20T16:20:48;40.17;;;23.97;;
21876;SDS011;11103;43.788;23.710;2022-11-20T16:23:16;118.70;;;55.90;;
21876;SDS011;11103;43.788;23.710;2022-11-20T16:25:42;47.57;;;27.50;;